sensor_id;sensor_type;location;lat;lon;timestamp;P1;durP1;ratioP1;P2;durP2;ratioP2
63312;SDS011;49442;45.640;13.812;2023-11-21T00:00:00;16.90;;;8.73;;
63312;SDS011;49442;45.640;13.812;2023-11-21T00:02:26;14.05;;;9.68;;
63312;SDS011;49442;45.640;13.812;2023-11-21T00:04:53;20.08;;;10.05;;
63312;SDS011;49442;45.640;13.812;2023-11-21T00:07:19;13.40;;;9.32;;
63312;SDS011;49442;45.640;13.812;2023-11-21T00:09:46;11.57;;;8.80;;
63312;SDS011;49442;45.640;13.812;2023-11-21T00:12:12;13.50;;;8.52;;
63312;SDS011;49442;45.640;13.812;2023-11-21T00:14:38;17.25;;;8.93;;
63312;SDS011;49442;45.640;13.812;2023-11-21T00:17:04;14.45;;;8.95;;
63312;SDS011;49442;45.640;13.812;2023-11-21T00:19:31;18.65;;;8.38;;
63312;SDS011;49442;45.640;13.812;2023-11-21T00:21:58;17.90;;;8.40;;
63312;SDS011;49442;45.640;13.812;2023-11-21T00:24:24;12.73;;;8.57;;
63312;SDS011;49442;45.640;13.812;2023-11-21T00:26:50;14.43;;;9.52;;
63312;SDS011;49442;45.640;13.812;2023-11-21T00:29:16;17.60;;;9.65;;
63312;SDS011;49442;45.640;13.812;2023-11-21T00:31:43;16.92;;;9.82;;
63312;SDS011;49442;45.640;13.812;2023-11-21T00:34:11;21.73;;;10.10;;
63312;SDS011;49442;45.640;13.812;2023-11-21T00:36:37;16.05;;;8.43;;
63312;SDS011;49442;45.640;13.812;2023-11-21T00:39:03;20.52;;;9.40;;
63312;SDS011;49442;45.640;13.812;2023-11-21T00:41:30;14.90;;;8.15;;
63312;SDS011;49442;45.640;13.812;2023-11-21T00:43:56;14.27;;;8.32;;
63312;SDS011;49442;45.640;13.812;2023-11-21T00:46:22;14.63;;;8.77;;
63312;SDS011;49442;45.640;13.812;2023-11-21T00:48:49;18.27;;;8.40;;
63312;SDS011;49442;45.640;13.812;2023-11-21T00:51:15;13.27;;;8.30;;
63312;SDS011;49442;45.640;13.812;2023-11-21T00:53:40;11.52;;;7.80;;
63312;SDS011;49442;45.640;13.812;2023-11-21T00:56:06;17.45;;;9.50;;
63312;SDS011;49442;45.640;13.812;2023-11-21T00:58:33;14.80;;;7.93;;
63312;SDS011;49442;45.640;13.812;2023-11-21T01:00:59;13.93;;;8.18;;
63312;SDS011;49442;45.640;13.812;2023-11-21T01:03:24;10.10;;;7.57;;
63312;SDS011;49442;45.640;13.812;2023-11-21T01:05:50;17.80;;;7.38;;
63312;SDS011;49442;45.640;13.812;2023-11-21T01:08:16;12.52;;;7.60;;
63312;SDS011;49442;45.640;13.812;2023-11-21T01:10:41;10.68;;;7.05;;
63312;SDS011;49442;45.640;13.812;2023-11-21T01:13:07;15.55;;;7.25;;
63312;SDS011;49442;45.640;13.812;2023-11-21T01:15:36;17.10;;;8.63;;
63312;SDS011;49442;45.640;13.812;2023-11-21T01:18:01;14.98;;;8.48;;
63312;SDS011;49442;45.640;13.812;2023-11-21T01:20:28;14.85;;;9.13;;
63312;SDS011;49442;45.640;13.812;2023-11-21T01:22:54;13.05;;;8.48;;
63312;SDS011;49442;45.640;13.812;2023-11-21T01:25:20;12.90;;;8.32;;
63312;SDS011;49442;45.640;13.812;2023-11-21T01:27:46;20.98;;;9.68;;
63312;SDS011;49442;45.640;13.812;2023-11-21T01:30:12;16.10;;;10.00;;
63312;SDS011;49442;45.640;13.812;2023-11-21T01:32:38;21.08;;;10.68;;
63312;SDS011;49442;45.640;13.812;2023-11-21T01:35:05;17.80;;;10.32;;
63312;SDS011;49442;45.640;13.812;2023-11-21T01:37:32;16.95;;;9.90;;
63312;SDS011;49442;45.640;13.812;2023-11-21T01:39:58;17.85;;;10.07;;
63312;SDS011;49442;45.640;13.812;2023-11-21T01:42:25;16.30;;;10.00;;
63312;SDS011;49442;45.640;13.812;2023-11-21T01:44:52;12.80;;;9.55;;
63312;SDS011;49442;45.640;13.812;2023-11-21T01:47:19;13.10;;;9.00;;
63312;SDS011;49442;45.640;13.812;2023-11-21T01:49:46;20.67;;;9.23;;
63312;SDS011;49442;45.640;13.812;2023-11-21T01:52:13;16.48;;;7.55;;
63312;SDS011;49442;45.640;13.812;2023-11-21T01:54:39;14.35;;;8.30;;
63312;SDS011;49442;45.640;13.812;2023-11-21T01:57:07;12.25;;;7.90;;
63312;SDS011;49442;45.640;13.812;2023-11-21T01:59:36;17.40;;;8.45;;
63312;SDS011;49442;45.640;13.812;2023-11-21T02:02:06;15.95;;;7.63;;
63312;SDS011;49442;45.640;13.812;2023-11-21T02:04:32;10.40;;;7.55;;
63312;SDS011;49442;45.640;13.812;2023-11-21T02:06:59;11.73;;;6.95;;
63312;SDS011;49442;45.640;13.812;2023-11-21T02:09:25;13.13;;;7.60;;
63312;SDS011;49442;45.640;13.812;2023-11-21T02:11:58;17.60;;;7.10;;
63312;SDS011;49442;45.640;13.812;2023-11-21T02:14:25;14.13;;;7.78;;
63312;SDS011;49442;45.640;13.812;2023-11-21T02:16:52;11.05;;;7.28;;
63312;SDS011;49442;45.640;13.812;2023-11-21T02:19:19;12.98;;;7.88;;
63312;SDS011;49442;45.640;13.812;2023-11-21T02:21:53;14.77;;;6.60;;
63312;SDS011;49442;45.640;13.812;2023-11-21T02:24:22;15.40;;;7.32;;
63312;SDS011;49442;45.640;13.812;2023-11-21T02:26:49;12.50;;;7.72;;
63312;SDS011;49442;45.640;13.812;2023-11-21T02:29:18;13.98;;;6.65;;
63312;SDS011;49442;45.640;13.812;2023-11-21T02:31:47;13.95;;;7.13;;
63312;SDS011;49442;45.640;13.812;2023-11-21T02:34:14;13.98;;;6.43;;
63312;SDS011;49442;45.640;13.812;2023-11-21T02:36:40;10.90;;;6.70;;
63312;SDS011;49442;45.640;13.812;2023-11-21T02:39:07;11.45;;;6.82;;
63312;SDS011;49442;45.640;13.812;2023-11-21T02:41:33;16.55;;;7.28;;
63312;SDS011;49442;45.640;13.812;2023-11-21T02:43:59;13.00;;;5.85;;
63312;SDS011;49442;45.640;13.812;2023-11-21T02:46:25;20.40;;;6.32;;
63312;SDS011;49442;45.640;13.812;2023-11-21T02:48:51;14.48;;;6.50;;
63312;SDS011;49442;45.640;13.812;2023-11-21T02:51:19;11.00;;;6.47;;
63312;SDS011;49442;45.640;13.812;2023-11-21T02:53:45;14.52;;;6.50;;
63312;SDS011;49442;45.640;13.812;2023-11-21T02:56:11;12.63;;;5.75;;
63312;SDS011;49442;45.640;13.812;2023-11-21T02:58:40;9.95;;;6.13;;
63312;SDS011;49442;45.640;13.812;2023-11-21T03:01:06;15.05;;;6.03;;
63312;SDS011;49442;45.640;13.812;2023-11-21T03:03:32;10.25;;;5.50;;
63312;SDS011;49442;45.640;13.812;2023-11-21T03:05:58;15.07;;;6.05;;
63312;SDS011;49442;45.640;13.812;2023-11-21T03:08:23;12.73;;;5.97;;
63312;SDS011;49442;45.640;13.812;2023-11-21T03:10:49;13.23;;;5.68;;
63312;SDS011;49442;45.640;13.812;2023-11-21T03:13:15;11.77;;;5.53;;
63312;SDS011;49442;45.640;13.812;2023-11-21T03:15:41;10.07;;;5.50;;
63312;SDS011;49442;45.640;13.812;2023-11-21T03:18:07;11.80;;;5.38;;
63312;SDS011;49442;45.640;13.812;2023-11-21T03:20:33;8.38;;;5.15;;
63312;SDS011;49442;45.640;13.812;2023-11-21T03:23:00;10.38;;;5.53;;
63312;SDS011;49442;45.640;13.812;2023-11-21T03:25:25;9.15;;;5.00;;
63312;SDS011;49442;45.640;13.812;2023-11-21T03:27:53;11.05;;;5.72;;
63312;SDS011;49442;45.640;13.812;2023-11-21T03:30:18;15.45;;;5.65;;
63312;SDS011;49442;45.640;13.812;2023-11-21T03:32:44;13.70;;;5.97;;
63312;SDS011;49442;45.640;13.812;2023-11-21T03:35:10;7.70;;;5.85;;
63312;SDS011;49442;45.640;13.812;2023-11-21T03:37:36;11.02;;;5.70;;
63312;SDS011;49442;45.640;13.812;2023-11-21T03:40:03;18.88;;;6.15;;
63312;SDS011;49442;45.640;13.812;2023-11-21T03:42:29;9.63;;;5.50;;
63312;SDS011;49442;45.640;13.812;2023-11-21T03:44:55;10.02;;;5.93;;
63312;SDS011;49442;45.640;13.812;2023-11-21T03:47:21;7.68;;;5.60;;
63312;SDS011;49442;45.640;13.812;2023-11-21T03:49:46;16.27;;;5.78;;
63312;SDS011;49442;45.640;13.812;2023-11-21T03:52:12;14.13;;;6.85;;
63312;SDS011;49442;45.640;13.812;2023-11-21T03:54:38;11.77;;;7.00;;
63312;SDS011;49442;45.640;13.812;2023-11-21T03:57:03;12.07;;;6.47;;
63312;SDS011;49442;45.640;13.812;2023-11-21T03:59:29;11.45;;;7.00;;
63312;SDS011;49442;45.640;13.812;2023-11-21T04:01:56;13.93;;;8.05;;
63312;SDS011;49442;45.640;13.812;2023-11-21T04:04:22;9.77;;;7.13;;
63312;SDS011;49442;45.640;13.812;2023-11-21T04:06:47;12.05;;;7.00;;
63312;SDS011;49442;45.640;13.812;2023-11-21T04:09:13;20.40;;;9.13;;
63312;SDS011;49442;45.640;13.812;2023-11-21T04:11:39;11.60;;;9.07;;
63312;SDS011;49442;45.640;13.812;2023-11-21T04:14:04;18.67;;;9.60;;
63312;SDS011;49442;45.640;13.812;2023-11-21T04:16:30;22.10;;;12.10;;
63312;SDS011;49442;45.640;13.812;2023-11-21T04:18:56;14.07;;;8.82;;
63312;SDS011;49442;45.640;13.812;2023-11-21T04:21:22;15.43;;;9.05;;
63312;SDS011;49442;45.640;13.812;2023-11-21T04:23:49;14.70;;;9.52;;
63312;SDS011;49442;45.640;13.812;2023-11-21T04:26:15;14.75;;;9.35;;
63312;SDS011;49442;45.640;13.812;2023-11-21T04:28:41;19.65;;;9.38;;
63312;SDS011;49442;45.640;13.812;2023-11-21T04:31:07;17.38;;;10.10;;
63312;SDS011;49442;45.640;13.812;2023-11-21T04:33:32;15.82;;;8.27;;
63312;SDS011;49442;45.640;13.812;2023-11-21T04:35:58;13.55;;;8.70;;
63312;SDS011;49442;45.640;13.812;2023-11-21T04:38:24;12.32;;;8.38;;
63312;SDS011;49442;45.640;13.812;2023-11-21T04:40:49;14.40;;;8.73;;
63312;SDS011;49442;45.640;13.812;2023-11-21T04:43:15;14.85;;;9.10;;
63312;SDS011;49442;45.640;13.812;2023-11-21T04:45:41;19.70;;;9.00;;
63312;SDS011;49442;45.640;13.812;2023-11-21T04:48:07;14.43;;;8.77;;
63312;SDS011;49442;45.640;13.812;2023-11-21T04:50:33;16.10;;;8.07;;
63312;SDS011;49442;45.640;13.812;2023-11-21T04:52:59;13.30;;;6.70;;
63312;SDS011;49442;45.640;13.812;2023-11-21T04:55:25;13.80;;;6.10;;
63312;SDS011;49442;45.640;13.812;2023-11-21T04:57:53;13.88;;;5.68;;
63312;SDS011;49442;45.640;13.812;2023-11-21T05:00:19;7.97;;;4.95;;
63312;SDS011;49442;45.640;13.812;2023-11-21T05:02:46;12.30;;;4.95;;
63312;SDS011;49442;45.640;13.812;2023-11-21T05:05:12;12.40;;;5.13;;
63312;SDS011;49442;45.640;13.812;2023-11-21T05:07:38;14.77;;;6.13;;
63312;SDS011;49442;45.640;13.812;2023-11-21T05:10:05;9.73;;;4.60;;
63312;SDS011;49442;45.640;13.812;2023-11-21T05:12:35;9.23;;;4.53;;
63312;SDS011;49442;45.640;13.812;2023-11-21T05:15:06;10.43;;;4.65;;
63312;SDS011;49442;45.640;13.812;2023-11-21T05:17:36;13.88;;;4.95;;
63312;SDS011;49442;45.640;13.812;2023-11-21T05:20:04;6.68;;;4.13;;
63312;SDS011;49442;45.640;13.812;2023-11-21T05:22:33;12.30;;;4.13;;
63312;SDS011;49442;45.640;13.812;2023-11-21T05:24:59;7.50;;;4.07;;
63312;SDS011;49442;45.640;13.812;2023-11-21T05:27:26;9.55;;;3.85;;
63312;SDS011;49442;45.640;13.812;2023-11-21T05:29:51;8.48;;;3.78;;
63312;SDS011;49442;45.640;13.812;2023-11-21T05:32:17;6.65;;;3.58;;
63312;SDS011;49442;45.640;13.812;2023-11-21T05:34:43;11.25;;;4.03;;
63312;SDS011;49442;45.640;13.812;2023-11-21T05:37:08;7.18;;;3.95;;
63312;SDS011;49442;45.640;13.812;2023-11-21T05:39:34;4.75;;;3.40;;
63312;SDS011;49442;45.640;13.812;2023-11-21T05:42:01;7.05;;;3.92;;
63312;SDS011;49442;45.640;13.812;2023-11-21T05:44:26;6.82;;;3.60;;
63312;SDS011;49442;45.640;13.812;2023-11-21T05:46:52;6.38;;;3.10;;
63312;SDS011;49442;45.640;13.812;2023-11-21T05:49:18;5.55;;;2.90;;
63312;SDS011;49442;45.640;13.812;2023-11-21T05:51:46;6.57;;;3.42;;
63312;SDS011;49442;45.640;13.812;2023-11-21T05:54:12;9.27;;;3.17;;
63312;SDS011;49442;45.640;13.812;2023-11-21T05:56:38;6.55;;;2.92;;
63312;SDS011;49442;45.640;13.812;2023-11-21T05:59:03;7.18;;;2.72;;
63312;SDS011;49442;45.640;13.812;2023-11-21T06:01:29;4.57;;;2.42;;
63312;SDS011;49442;45.640;13.812;2023-11-21T06:03:55;5.13;;;2.50;;
63312;SDS011;49442;45.640;13.812;2023-11-21T06:06:21;4.85;;;2.55;;
63312;SDS011;49442;45.640;13.812;2023-11-21T06:08:50;3.95;;;2.55;;
63312;SDS011;49442;45.640;13.812;2023-11-21T06:11:17;3.65;;;2.50;;
63312;SDS011;49442;45.640;13.812;2023-11-21T06:13:42;4.60;;;2.75;;
63312;SDS011;49442;45.640;13.812;2023-11-21T06:16:09;4.03;;;2.50;;
63312;SDS011;49442;45.640;13.812;2023-11-21T06:18:34;8.57;;;2.88;;
63312;SDS011;49442;45.640;13.812;2023-11-21T06:21:00;3.15;;;1.77;;
63312;SDS011;49442;45.640;13.812;2023-11-21T06:23:26;4.35;;;2.60;;
63312;SDS011;49442;45.640;13.812;2023-11-21T06:25:52;5.95;;;3.25;;
63312;SDS011;49442;45.640;13.812;2023-11-21T06:28:18;6.53;;;2.58;;
63312;SDS011;49442;45.640;13.812;2023-11-21T06:30:43;3.55;;;2.13;;
63312;SDS011;49442;45.640;13.812;2023-11-21T06:33:14;3.70;;;2.00;;
63312;SDS011;49442;45.640;13.812;2023-11-21T06:35:39;3.55;;;2.15;;
63312;SDS011;49442;45.640;13.812;2023-11-21T06:38:05;4.53;;;2.08;;
63312;SDS011;49442;45.640;13.812;2023-11-21T06:40:31;3.50;;;2.50;;
63312;SDS011;49442;45.640;13.812;2023-11-21T06:42:58;6.78;;;2.20;;
63312;SDS011;49442;45.640;13.812;2023-11-21T06:45:24;3.83;;;2.35;;
63312;SDS011;49442;45.640;13.812;2023-11-21T06:47:50;3.35;;;2.00;;
63312;SDS011;49442;45.640;13.812;2023-11-21T06:50:16;4.25;;;2.53;;
63312;SDS011;49442;45.640;13.812;2023-11-21T06:52:41;5.20;;;2.25;;
63312;SDS011;49442;45.640;13.812;2023-11-21T06:55:08;3.70;;;2.38;;
63312;SDS011;49442;45.640;13.812;2023-11-21T06:57:34;4.88;;;2.75;;
63312;SDS011;49442;45.640;13.812;2023-11-21T07:00:00;3.20;;;2.25;;
63312;SDS011;49442;45.640;13.812;2023-11-21T07:02:26;3.03;;;2.28;;
63312;SDS011;49442;45.640;13.812;2023-11-21T07:04:53;3.72;;;2.00;;
63312;SDS011;49442;45.640;13.812;2023-11-21T07:07:18;3.25;;;2.20;;
63312;SDS011;49442;45.640;13.812;2023-11-21T07:09:44;6.40;;;2.53;;
63312;SDS011;49442;45.640;13.812;2023-11-21T07:12:10;4.03;;;2.13;;
63312;SDS011;49442;45.640;13.812;2023-11-21T07:14:36;3.47;;;2.45;;
63312;SDS011;49442;45.640;13.812;2023-11-21T07:17:04;5.82;;;2.30;;
63312;SDS011;49442;45.640;13.812;2023-11-21T07:19:29;6.95;;;2.35;;
63312;SDS011;49442;45.640;13.812;2023-11-21T07:21:55;7.00;;;2.30;;
63312;SDS011;49442;45.640;13.812;2023-11-21T07:24:21;5.00;;;2.20;;
63312;SDS011;49442;45.640;13.812;2023-11-21T07:26:48;3.47;;;2.60;;
63312;SDS011;49442;45.640;13.812;2023-11-21T07:29:14;2.88;;;2.15;;
63312;SDS011;49442;45.640;13.812;2023-11-21T07:31:40;5.07;;;2.60;;
63312;SDS011;49442;45.640;13.812;2023-11-21T07:34:06;5.22;;;2.22;;
63312;SDS011;49442;45.640;13.812;2023-11-21T07:36:47;4.47;;;2.42;;
63312;SDS011;49442;45.640;13.812;2023-11-21T07:39:13;10.25;;;2.78;;
63312;SDS011;49442;45.640;13.812;2023-11-21T07:41:41;6.45;;;2.47;;
63312;SDS011;49442;45.640;13.812;2023-11-21T07:44:13;5.15;;;2.17;;
63312;SDS011;49442;45.640;13.812;2023-11-21T07:46:39;3.13;;;2.40;;
63312;SDS011;49442;45.640;13.812;2023-11-21T07:49:05;2.78;;;2.03;;
63312;SDS011;49442;45.640;13.812;2023-11-21T07:51:31;3.03;;;2.08;;
63312;SDS011;49442;45.640;13.812;2023-11-21T07:53:56;10.02;;;2.72;;
63312;SDS011;49442;45.640;13.812;2023-11-21T07:56:22;4.47;;;2.00;;
63312;SDS011;49442;45.640;13.812;2023-11-21T07:58:48;3.85;;;2.30;;
63312;SDS011;49442;45.640;13.812;2023-11-21T08:01:15;2.92;;;2.33;;
63312;SDS011;49442;45.640;13.812;2023-11-21T08:03:40;5.30;;;2.58;;
63312;SDS011;49442;45.640;13.812;2023-11-21T08:06:06;3.83;;;1.88;;
63312;SDS011;49442;45.640;13.812;2023-11-21T08:08:32;5.43;;;2.25;;
63312;SDS011;49442;45.640;13.812;2023-11-21T08:10:58;3.58;;;2.00;;
63312;SDS011;49442;45.640;13.812;2023-11-21T08:13:26;2.80;;;1.90;;
63312;SDS011;49442;45.640;13.812;2023-11-21T08:15:56;4.30;;;2.28;;
63312;SDS011;49442;45.640;13.812;2023-11-21T08:18:30;4.78;;;2.03;;
63312;SDS011;49442;45.640;13.812;2023-11-21T08:20:56;2.97;;;1.90;;
63312;SDS011;49442;45.640;13.812;2023-11-21T08:23:22;2.90;;;2.10;;
63312;SDS011;49442;45.640;13.812;2023-11-21T08:25:50;2.63;;;1.88;;
63312;SDS011;49442;45.640;13.812;2023-11-21T08:28:19;4.95;;;1.92;;
63312;SDS011;49442;45.640;13.812;2023-11-21T08:30:47;2.85;;;1.92;;
63312;SDS011;49442;45.640;13.812;2023-11-21T08:33:13;8.02;;;2.17;;
63312;SDS011;49442;45.640;13.812;2023-11-21T08:35:39;5.13;;;2.22;;
63312;SDS011;49442;45.640;13.812;2023-11-21T08:38:04;1.92;;;1.65;;
63312;SDS011;49442;45.640;13.812;2023-11-21T08:40:30;3.53;;;2.10;;
63312;SDS011;49442;45.640;13.812;2023-11-21T08:42:56;2.65;;;1.90;;
63312;SDS011;49442;45.640;13.812;2023-11-21T08:45:23;3.60;;;1.67;;
63312;SDS011;49442;45.640;13.812;2023-11-21T08:47:51;2.50;;;1.75;;
63312;SDS011;49442;45.640;13.812;2023-11-21T08:50:16;2.65;;;1.77;;
63312;SDS011;49442;45.640;13.812;2023-11-21T08:52:43;3.83;;;1.65;;
63312;SDS011;49442;45.640;13.812;2023-11-21T08:55:10;5.03;;;1.60;;
63312;SDS011;49442;45.640;13.812;2023-11-21T08:57:38;4.20;;;1.67;;
63312;SDS011;49442;45.640;13.812;2023-11-21T09:00:07;2.58;;;1.70;;
63312;SDS011;49442;45.640;13.812;2023-11-21T09:02:36;5.38;;;1.65;;
63312;SDS011;49442;45.640;13.812;2023-11-21T09:05:08;2.78;;;1.67;;
63312;SDS011;49442;45.640;13.812;2023-11-21T09:07:35;2.95;;;1.73;;
63312;SDS011;49442;45.640;13.812;2023-11-21T09:10:02;2.65;;;1.40;;
63312;SDS011;49442;45.640;13.812;2023-11-21T09:12:28;2.20;;;1.65;;
63312;SDS011;49442;45.640;13.812;2023-11-21T09:14:54;3.75;;;1.55;;
63312;SDS011;49442;45.640;13.812;2023-11-21T09:17:20;3.00;;;1.73;;
63312;SDS011;49442;45.640;13.812;2023-11-21T09:19:45;4.63;;;1.80;;
63312;SDS011;49442;45.640;13.812;2023-11-21T09:22:16;8.50;;;1.93;;
63312;SDS011;49442;45.640;13.812;2023-11-21T09:24:42;5.45;;;1.80;;
63312;SDS011;49442;45.640;13.812;2023-11-21T09:27:08;3.00;;;1.75;;
63312;SDS011;49442;45.640;13.812;2023-11-21T09:29:34;2.60;;;1.60;;
63312;SDS011;49442;45.640;13.812;2023-11-21T09:32:01;3.33;;;1.63;;
63312;SDS011;49442;45.640;13.812;2023-11-21T09:34:28;1.83;;;1.40;;
63312;SDS011;49442;45.640;13.812;2023-11-21T09:36:53;3.97;;;1.85;;
63312;SDS011;49442;45.640;13.812;2023-11-21T09:39:19;4.03;;;1.50;;
63312;SDS011;49442;45.640;13.812;2023-11-21T09:42:29;3.10;;;1.67;;
63312;SDS011;49442;45.640;13.812;2023-11-21T09:47:43;2.35;;;1.67;;
63312;SDS011;49442;45.640;13.812;2023-11-21T09:50:09;3.80;;;2.05;;
63312;SDS011;49442;45.640;13.812;2023-11-21T09:52:44;2.05;;;1.27;;
63312;SDS011;49442;45.640;13.812;2023-11-21T09:55:16;2.03;;;1.40;;
63312;SDS011;49442;45.640;13.812;2023-11-21T09:57:47;3.13;;;1.30;;
63312;SDS011;49442;45.640;13.812;2023-11-21T10:00:14;1.65;;;1.27;;
63312;SDS011;49442;45.640;13.812;2023-11-21T10:02:42;2.10;;;1.30;;
63312;SDS011;49442;45.640;13.812;2023-11-21T10:05:09;2.60;;;1.48;;
63312;SDS011;49442;45.640;13.812;2023-11-21T10:07:34;2.15;;;1.17;;
63312;SDS011;49442;45.640;13.812;2023-11-21T10:10:00;2.10;;;1.67;;
63312;SDS011;49442;45.640;13.812;2023-11-21T10:12:27;3.83;;;1.23;;
63312;SDS011;49442;45.640;13.812;2023-11-21T10:14:54;2.47;;;1.48;;
63312;SDS011;49442;45.640;13.812;2023-11-21T10:17:24;3.38;;;1.20;;
63312;SDS011;49442;45.640;13.812;2023-11-21T10:19:54;1.45;;;1.27;;
63312;SDS011;49442;45.640;13.812;2023-11-21T10:22:21;1.67;;;1.02;;
63312;SDS011;49442;45.640;13.812;2023-11-21T10:24:47;1.52;;;1.00;;
63312;SDS011;49442;45.640;13.812;2023-11-21T10:27:13;2.42;;;1.00;;
63312;SDS011;49442;45.640;13.812;2023-11-21T10:29:39;1.17;;;1.08;;
63312;SDS011;49442;45.640;13.812;2023-11-21T10:32:06;2.00;;;1.17;;
63312;SDS011;49442;45.640;13.812;2023-11-21T10:34:32;1.25;;;0.95;;
63312;SDS011;49442;45.640;13.812;2023-11-21T10:36:59;1.27;;;0.98;;
63312;SDS011;49442;45.640;13.812;2023-11-21T10:39:38;1.10;;;1.00;;
63312;SDS011;49442;45.640;13.812;2023-11-21T10:42:07;2.95;;;0.90;;
63312;SDS011;49442;45.640;13.812;2023-11-21T10:44:34;2.33;;;0.85;;
63312;SDS011;49442;45.640;13.812;2023-11-21T10:46:59;1.27;;;0.77;;
63312;SDS011;49442;45.640;13.812;2023-11-21T10:49:26;1.25;;;0.70;;
63312;SDS011;49442;45.640;13.812;2023-11-21T10:51:52;2.55;;;1.02;;
63312;SDS011;49442;45.640;13.812;2023-11-21T10:54:19;1.58;;;1.00;;
63312;SDS011;49442;45.640;13.812;2023-11-21T10:56:47;3.03;;;1.08;;
63312;SDS011;49442;45.640;13.812;2023-11-21T10:59:16;4.82;;;0.93;;
63312;SDS011;49442;45.640;13.812;2023-11-21T11:01:43;4.13;;;1.20;;
63312;SDS011;49442;45.640;13.812;2023-11-21T11:04:11;3.45;;;1.20;;
63312;SDS011;49442;45.640;13.812;2023-11-21T11:06:51;7.95;;;1.00;;
63312;SDS011;49442;45.640;13.812;2023-11-21T11:09:28;2.40;;;1.13;;
63312;SDS011;49442;45.640;13.812;2023-11-21T11:11:55;3.03;;;1.00;;
63312;SDS011;49442;45.640;13.812;2023-11-21T11:14:21;2.22;;;1.55;;
63312;SDS011;49442;45.640;13.812;2023-11-21T11:16:50;7.00;;;0.80;;
63312;SDS011;49442;45.640;13.812;2023-11-21T11:19:18;1.02;;;0.70;;
63312;SDS011;49442;45.640;13.812;2023-11-21T11:22:00;2.65;;;0.63;;
63312;SDS011;49442;45.640;13.812;2023-11-21T11:27:25;0.75;;;0.75;;
63312;SDS011;49442;45.640;13.812;2023-11-21T11:32:45;1.77;;;1.00;;
63312;SDS011;49442;45.640;13.812;2023-11-21T11:35:24;1.05;;;0.90;;
63312;SDS011;49442;45.640;13.812;2023-11-21T11:40:26;1.55;;;0.90;;
63312;SDS011;49442;45.640;13.812;2023-11-21T11:43:05;3.50;;;0.90;;
63312;SDS011;49442;45.640;13.812;2023-11-21T11:45:32;2.22;;;0.85;;
63312;SDS011;49442;45.640;13.812;2023-11-21T11:48:02;0.80;;;0.70;;
63312;SDS011;49442;45.640;13.812;2023-11-21T11:50:28;3.03;;;0.70;;
63312;SDS011;49442;45.640;13.812;2023-11-21T11:52:55;2.85;;;1.08;;
63312;SDS011;49442;45.640;13.812;2023-11-21T11:55:37;2.75;;;0.73;;
63312;SDS011;49442;45.640;13.812;2023-11-21T11:58:04;1.20;;;0.82;;
63312;SDS011;49442;45.640;13.812;2023-11-21T12:02:58;0.98;;;0.65;;
63312;SDS011;49442;45.640;13.812;2023-11-21T12:05:28;1.23;;;0.70;;
63312;SDS011;49442;45.640;13.812;2023-11-21T12:08:01;3.80;;;0.70;;
63312;SDS011;49442;45.640;13.812;2023-11-21T12:10:31;0.82;;;0.60;;
63312;SDS011;49442;45.640;13.812;2023-11-21T12:13:08;2.20;;;0.57;;
63312;SDS011;49442;45.640;13.812;2023-11-21T12:15:37;2.22;;;0.77;;
63312;SDS011;49442;45.640;13.812;2023-11-21T12:18:03;0.60;;;0.40;;
63312;SDS011;49442;45.640;13.812;2023-11-21T12:20:30;2.05;;;0.52;;
63312;SDS011;49442;45.640;13.812;2023-11-21T12:22:59;1.48;;;0.80;;
63312;SDS011;49442;45.640;13.812;2023-11-21T12:25:25;0.40;;;0.40;;
63312;SDS011;49442;45.640;13.812;2023-11-21T12:27:57;0.73;;;0.50;;
63312;SDS011;49442;45.640;13.812;2023-11-21T12:30:25;0.95;;;0.95;;
63312;SDS011;49442;45.640;13.812;2023-11-21T12:35:23;1.60;;;0.70;;
63312;SDS011;49442;45.640;13.812;2023-11-21T12:37:51;0.95;;;0.57;;
63312;SDS011;49442;45.640;13.812;2023-11-21T12:40:17;1.55;;;0.70;;
63312;SDS011;49442;45.640;13.812;2023-11-21T12:42:47;1.77;;;0.50;;
63312;SDS011;49442;45.640;13.812;2023-11-21T12:47:51;0.90;;;0.70;;
63312;SDS011;49442;45.640;13.812;2023-11-21T12:50:22;0.82;;;0.60;;
63312;SDS011;49442;45.640;13.812;2023-11-21T12:52:49;1.02;;;0.70;;
63312;SDS011;49442;45.640;13.812;2023-11-21T12:55:18;0.60;;;0.60;;
63312;SDS011;49442;45.640;13.812;2023-11-21T12:57:54;0.77;;;0.70;;
63312;SDS011;49442;45.640;13.812;2023-11-21T13:01:06;1.00;;;0.70;;
63312;SDS011;49442;45.640;13.812;2023-11-21T13:03:11;1.15;;;0.73;;
63312;SDS011;49442;45.640;13.812;2023-11-21T13:05:41;1.93;;;1.00;;
63312;SDS011;49442;45.640;13.812;2023-11-21T13:08:16;0.85;;;0.82;;
63312;SDS011;49442;45.640;13.812;2023-11-21T13:10:45;1.98;;;0.50;;
63312;SDS011;49442;45.640;13.812;2023-11-21T13:13:14;1.30;;;0.90;;
63312;SDS011;49442;45.640;13.812;2023-11-21T13:15:52;2.00;;;0.77;;
63312;SDS011;49442;45.640;13.812;2023-11-21T13:18:21;2.15;;;0.60;;
63312;SDS011;49442;45.640;13.812;2023-11-21T13:20:52;2.78;;;0.60;;
63312;SDS011;49442;45.640;13.812;2023-11-21T13:25:49;1.63;;;0.60;;
63312;SDS011;49442;45.640;13.812;2023-11-21T13:28:15;1.10;;;0.70;;
63312;SDS011;49442;45.640;13.812;2023-11-21T13:30:43;2.50;;;0.75;;
63312;SDS011;49442;45.640;13.812;2023-11-21T13:33:09;6.00;;;0.85;;
63312;SDS011;49442;45.640;13.812;2023-11-21T13:35:42;1.40;;;0.80;;
63312;SDS011;49442;45.640;13.812;2023-11-21T13:38:13;3.33;;;0.90;;
63312;SDS011;49442;45.640;13.812;2023-11-21T13:40:42;0.90;;;0.63;;
63312;SDS011;49442;45.640;13.812;2023-11-21T13:43:17;2.83;;;0.70;;
63312;SDS011;49442;45.640;13.812;2023-11-21T13:45:45;0.80;;;0.80;;
63312;SDS011;49442;45.640;13.812;2023-11-21T13:48:12;1.02;;;0.50;;
63312;SDS011;49442;45.640;13.812;2023-11-21T13:50:39;1.88;;;0.80;;
63312;SDS011;49442;45.640;13.812;2023-11-21T13:53:13;1.83;;;0.77;;
63312;SDS011;49442;45.640;13.812;2023-11-21T13:55:48;2.03;;;0.90;;
63312;SDS011;49442;45.640;13.812;2023-11-21T13:58:20;1.77;;;0.88;;
63312;SDS011;49442;45.640;13.812;2023-11-21T14:01:09;1.20;;;0.90;;
63312;SDS011;49442;45.640;13.812;2023-11-21T14:03:50;2.65;;;0.90;;
63312;SDS011;49442;45.640;13.812;2023-11-21T14:06:22;4.97;;;1.20;;
63312;SDS011;49442;45.640;13.812;2023-11-21T14:08:53;1.23;;;0.80;;
63312;SDS011;49442;45.640;13.812;2023-11-21T14:11:21;0.90;;;0.75;;
63312;SDS011;49442;45.640;13.812;2023-11-21T14:13:47;4.38;;;0.90;;
63312;SDS011;49442;45.640;13.812;2023-11-21T14:16:14;1.75;;;0.80;;
63312;SDS011;49442;45.640;13.812;2023-11-21T14:18:41;0.80;;;0.80;;
63312;SDS011;49442;45.640;13.812;2023-11-21T14:21:18;4.50;;;0.80;;
63312;SDS011;49442;45.640;13.812;2023-11-21T14:23:44;1.20;;;1.00;;
63312;SDS011;49442;45.640;13.812;2023-11-21T14:26:11;1.65;;;1.00;;
63312;SDS011;49442;45.640;13.812;2023-11-21T14:28:40;1.13;;;0.80;;
63312;SDS011;49442;45.640;13.812;2023-11-21T14:31:06;4.30;;;1.20;;
63312;SDS011;49442;45.640;13.812;2023-11-21T14:33:33;2.58;;;1.00;;
63312;SDS011;49442;45.640;13.812;2023-11-21T14:35:58;4.50;;;1.10;;
63312;SDS011;49442;45.640;13.812;2023-11-21T14:38:24;1.23;;;1.00;;
63312;SDS011;49442;45.640;13.812;2023-11-21T14:40:50;2.72;;;1.13;;
63312;SDS011;49442;45.640;13.812;2023-11-21T14:43:15;5.03;;;1.15;;
63312;SDS011;49442;45.640;13.812;2023-11-21T14:45:44;2.42;;;1.20;;
63312;SDS011;49442;45.640;13.812;2023-11-21T14:48:09;2.67;;;1.00;;
63312;SDS011;49442;45.640;13.812;2023-11-21T14:53:07;2.55;;;1.23;;